createdAt,value
2023-05-11T00:01:33.943Z,1.80
2023-05-11T00:04:01.416Z,2.10
2023-05-11T00:06:28.748Z,2.10
2023-05-11T00:08:55.872Z,2.10
2023-05-11T00:11:23.751Z,2.10
2023-05-11T00:13:50.997Z,1.90
2023-05-11T00:16:18.259Z,2.13
2023-05-11T00:18:45.493Z,1.93
2023-05-11T00:21:12.831Z,2.17
2023-05-11T00:23:39.957Z,2.53
2023-05-11T00:26:07.113Z,2.10
2023-05-11T00:28:34.224Z,2.10
2023-05-11T00:31:01.565Z,2.30
2023-05-11T00:33:28.766Z,2.40
2023-05-11T00:35:55.951Z,2.30
2023-05-11T00:38:23.103Z,2.20
2023-05-11T00:40:51.129Z,2.00
2023-05-11T00:43:18.329Z,2.20
2023-05-11T00:45:48.121Z,2.20
2023-05-11T00:48:15.972Z,2.23
2023-05-11T00:50:43.551Z,2.00
2023-05-11T00:53:11.538Z,2.50
2023-05-11T00:55:38.843Z,2.20
2023-05-11T00:58:06.610Z,2.30
2023-05-11T01:00:33.803Z,2.30
2023-05-11T01:03:02.211Z,2.17
2023-05-11T01:05:48.115Z,2.57
2023-05-11T01:08:19.480Z,2.00
2023-05-11T01:10:49.810Z,2.50
2023-05-11T01:13:23.048Z,2.20
2023-05-11T01:15:56.250Z,2.00
2023-05-11T01:18:29.557Z,2.60
2023-05-11T01:20:59.271Z,2.43
2023-05-11T01:23:29.182Z,2.30
2023-05-11T01:26:15.252Z,1.97
2023-05-11T01:28:57.588Z,2.10
2023-05-11T01:31:25.692Z,2.07
2023-05-11T01:33:58.410Z,2.10
2023-05-11T01:36:29.301Z,2.20
2023-05-11T01:38:58.908Z,2.40
2023-05-11T01:41:28.058Z,2.30
2023-05-11T01:43:56.610Z,2.43
2023-05-11T01:46:26.328Z,2.20
2023-05-11T01:48:55.426Z,2.70
2023-05-11T01:51:23.408Z,2.40
2023-05-11T01:53:50.931Z,2.40
2023-05-11T01:56:20.562Z,2.20
2023-05-11T01:58:47.963Z,2.20
2023-05-11T02:01:15.916Z,2.73
2023-05-11T02:03:43.814Z,2.30
2023-05-11T02:06:12.155Z,2.50
2023-05-11T02:08:40.061Z,2.43
2023-05-11T02:11:07.840Z,2.20
2023-05-11T02:13:37.542Z,2.50
2023-05-11T02:16:05.462Z,2.23
2023-05-11T02:18:33.774Z,2.30
2023-05-11T02:21:02.461Z,2.27
2023-05-11T02:23:31.959Z,2.30
2023-05-11T02:25:59.170Z,2.13
2023-05-11T02:28:26.849Z,2.40
2023-05-11T02:30:54.987Z,2.40
2023-05-11T02:33:26.434Z,2.13
2023-05-11T02:35:55.549Z,2.00
2023-05-11T02:38:25.809Z,2.00
2023-05-11T02:40:56.215Z,2.43
2023-05-11T02:43:25.264Z,2.03
2023-05-11T02:45:54.690Z,2.40
2023-05-11T02:48:27.330Z,1.90
2023-05-11T02:50:55.668Z,2.37
2023-05-11T02:53:25.026Z,2.20
2023-05-11T02:55:52.425Z,2.40
2023-05-11T02:58:20.130Z,1.97
2023-05-11T03:00:47.941Z,2.30
2023-05-11T03:03:15.346Z,2.40
2023-05-11T03:05:42.619Z,2.23
2023-05-11T03:08:09.861Z,2.27
2023-05-11T03:10:37.196Z,2.13
2023-05-11T03:13:04.684Z,2.13
2023-05-11T03:15:32.342Z,2.30
2023-05-11T03:18:00.382Z,2.30
2023-05-11T03:20:28.214Z,2.20
2023-05-11T03:22:56.293Z,2.43
2023-05-11T03:25:24.538Z,2.47
2023-05-11T03:27:52.253Z,2.20
2023-05-11T03:30:20.928Z,2.50
2023-05-11T03:32:48.196Z,2.50
2023-05-11T03:35:15.611Z,2.73
2023-05-11T03:37:43.836Z,2.37
2023-05-11T03:40:12.550Z,2.60
2023-05-11T03:42:40.632Z,2.40
2023-05-11T03:45:08.750Z,2.50
2023-05-11T03:47:36.819Z,3.03
2023-05-11T03:50:04.476Z,2.53
2023-05-11T03:52:32.116Z,2.60
2023-05-11T03:54:59.246Z,2.30
2023-05-11T03:57:26.680Z,2.40
2023-05-11T03:59:53.897Z,2.70
2023-05-11T04:02:21.977Z,2.40
2023-05-11T04:04:49.292Z,2.27
2023-05-11T04:07:16.563Z,2.37
2023-05-11T04:09:43.726Z,2.43
2023-05-11T04:12:10.927Z,2.60
2023-05-11T04:14:38.082Z,2.47
2023-05-11T04:17:07.989Z,2.20
2023-05-11T04:19:35.784Z,2.80
2023-05-11T04:22:02.907Z,2.57
2023-05-11T04:24:30.061Z,2.20
2023-05-11T04:26:57.798Z,2.20
2023-05-11T04:29:25.006Z,2.20
2023-05-11T04:31:52.325Z,2.50
2023-05-11T04:34:19.578Z,2.40
2023-05-11T04:36:50.192Z,2.17
2023-05-11T04:39:17.540Z,4.37
2023-05-11T04:41:44.791Z,2.30
2023-05-11T04:44:11.964Z,2.50
2023-05-11T04:46:39.251Z,2.30
2023-05-11T04:49:06.544Z,1.97
2023-05-11T04:51:33.720Z,1.83
2023-05-11T04:54:00.847Z,1.97
2023-05-11T04:56:27.986Z,2.10
2023-05-11T04:58:55.161Z,2.10
2023-05-11T05:01:22.350Z,2.03
2023-05-11T05:03:50.351Z,2.20
2023-05-11T05:06:17.500Z,1.83
2023-05-11T05:08:44.639Z,2.50
2023-05-11T05:11:11.818Z,1.70
2023-05-11T05:13:38.991Z,1.70
2023-05-11T05:16:06.305Z,1.70
2023-05-11T05:18:33.872Z,1.80
2023-05-11T05:21:01.101Z,1.60
2023-05-11T05:23:28.244Z,1.70
2023-05-11T05:25:55.366Z,1.70
2023-05-11T05:28:23.469Z,1.70
2023-05-11T05:30:50.796Z,1.67
2023-05-11T05:33:17.985Z,1.40
2023-05-11T05:35:46.666Z,1.47
2023-05-11T05:38:13.817Z,1.80
2023-05-11T05:40:40.956Z,1.60
2023-05-11T05:43:08.154Z,1.50
2023-05-11T05:45:35.365Z,1.60
2023-05-11T05:48:02.994Z,1.70
2023-05-11T05:50:30.335Z,1.60
2023-05-11T05:52:57.832Z,1.67
2023-05-11T05:55:25.003Z,1.50
2023-05-11T05:57:52.177Z,1.50
2023-05-11T06:00:19.593Z,1.57
2023-05-11T06:02:47.018Z,1.90
2023-05-11T06:05:14.205Z,2.07
2023-05-11T06:07:41.363Z,2.60
2023-05-11T06:10:08.541Z,2.30
2023-05-11T06:12:35.769Z,1.70
2023-05-11T06:15:03.006Z,1.50
2023-05-11T06:17:30.234Z,1.40
2023-05-11T06:19:57.424Z,1.67
2023-05-11T06:22:24.537Z,1.60
2023-05-11T06:24:51.809Z,1.30
2023-05-11T06:27:18.962Z,1.60
2023-05-11T06:29:46.452Z,1.50
2023-05-11T06:32:13.874Z,1.40
2023-05-11T06:34:41.014Z,1.40
2023-05-11T06:37:08.230Z,1.47
2023-05-11T06:39:38.617Z,1.13
2023-05-11T06:42:06.792Z,1.30
2023-05-11T06:44:34.527Z,1.30
2023-05-11T06:47:01.760Z,1.40
2023-05-11T06:49:28.899Z,1.40
2023-05-11T06:51:56.038Z,1.60
2023-05-11T06:54:23.313Z,1.23
2023-05-11T06:56:50.492Z,1.20
2023-05-11T06:59:17.814Z,1.50
2023-05-11T07:01:45.535Z,1.30
2023-05-11T07:04:12.785Z,1.30
2023-05-11T07:06:40.061Z,1.30
2023-05-11T07:09:08.022Z,1.37
2023-05-11T07:11:35.293Z,1.40
2023-05-11T07:14:02.534Z,1.37
2023-05-11T07:16:29.788Z,1.60
2023-05-11T07:18:56.987Z,1.40
2023-05-11T07:21:24.158Z,1.20
2023-05-11T07:23:51.268Z,1.50
2023-05-11T07:26:18.449Z,1.40
2023-05-11T07:28:45.572Z,1.30
2023-05-11T07:31:12.782Z,1.27
2023-05-11T07:33:40.029Z,1.30
2023-05-11T07:36:07.687Z,1.40
2023-05-11T07:38:34.876Z,1.40
2023-05-11T07:41:02.044Z,1.60
2023-05-11T07:43:29.352Z,1.50
2023-05-11T07:45:56.613Z,1.40
2023-05-11T07:48:23.775Z,1.43
2023-05-11T07:50:50.980Z,1.43
2023-05-11T07:53:18.125Z,1.53
2023-05-11T07:55:45.333Z,2.00
2023-05-11T07:58:12.493Z,1.60
2023-05-11T08:00:39.743Z,1.50
2023-05-11T08:03:07.389Z,1.70
2023-05-11T08:05:37.504Z,1.70
2023-05-11T08:08:05.585Z,1.53
2023-05-11T08:10:32.756Z,1.90
2023-05-11T08:13:00.193Z,1.80
2023-05-11T08:15:28.155Z,1.60
2023-05-11T08:17:55.550Z,1.57
2023-05-11T08:20:23.207Z,2.00
2023-05-11T08:22:50.509Z,1.60
2023-05-11T08:25:18.195Z,1.53
2023-05-11T08:27:45.586Z,1.60
2023-05-11T08:30:12.949Z,1.40
2023-05-11T08:32:54.508Z,1.50
2023-05-11T08:35:25.977Z,1.50
2023-05-11T08:37:53.216Z,1.83
2023-05-11T08:40:20.941Z,1.80
2023-05-11T08:42:48.868Z,2.00
2023-05-11T08:45:16.630Z,1.90
2023-05-11T08:47:44.381Z,1.80
2023-05-11T08:50:11.572Z,1.90
2023-05-11T08:52:38.783Z,1.93
2023-05-11T08:55:06.165Z,2.00
2023-05-11T08:57:35.115Z,1.90
2023-05-11T09:00:02.922Z,1.90
2023-05-11T09:02:30.212Z,2.00
2023-05-11T09:04:58.080Z,1.90
2023-05-11T09:07:25.735Z,1.83
2023-05-11T09:09:52.996Z,1.80
2023-05-11T09:12:20.400Z,1.83
2023-05-11T09:14:47.636Z,1.70
2023-05-11T09:17:15.145Z,1.80
2023-05-11T09:20:01.891Z,1.83
2023-05-11T09:22:31.375Z,2.17
2023-05-11T09:25:01.695Z,2.00
2023-05-11T09:27:28.880Z,2.07
2023-05-11T09:29:56.172Z,2.00
2023-05-11T09:32:23.386Z,1.90
2023-05-11T09:34:50.623Z,2.03
2023-05-11T09:37:18.590Z,1.93
2023-05-11T09:40:14.176Z,1.93
2023-05-11T09:42:33.078Z,2.00
2023-05-11T09:45:00.554Z,1.93
2023-05-11T09:47:29.913Z,2.50
2023-05-11T09:49:57.287Z,2.10
2023-05-11T09:52:24.459Z,2.00
2023-05-11T09:54:52.710Z,1.87
2023-05-11T09:57:26.035Z,1.90
2023-05-11T09:59:53.559Z,2.10
2023-05-11T10:02:27.025Z,1.90
2023-05-11T10:04:55.525Z,1.70
2023-05-11T10:07:29.865Z,2.17
2023-05-11T10:09:58.213Z,2.00
2023-05-11T10:12:25.978Z,1.80
2023-05-11T10:14:56.834Z,2.00
2023-05-11T10:17:24.138Z,1.73
2023-05-11T10:19:51.891Z,1.90
2023-05-11T10:22:19.356Z,6.57
2023-05-11T10:24:47.350Z,2.40
2023-05-11T10:27:15.495Z,3.88
2023-05-11T10:29:43.445Z,2.05
2023-05-11T10:32:11.608Z,2.80
2023-05-11T10:34:41.834Z,2.00
2023-05-11T10:37:09.453Z,2.10
2023-05-11T10:39:40.391Z,3.47
2023-05-11T10:42:07.650Z,1.90
2023-05-11T10:44:44.116Z,2.10
2023-05-11T10:47:11.565Z,2.10
2023-05-11T10:49:45.923Z,2.17
2023-05-11T10:52:13.056Z,2.20
2023-05-11T10:54:40.198Z,6.80
2023-05-11T10:57:25.466Z,2.70
2023-05-11T11:00:09.446Z,2.33
2023-05-11T11:02:36.962Z,2.20
2023-05-11T11:05:07.724Z,2.20
2023-05-11T11:07:53.660Z,2.03
2023-05-11T11:10:33.035Z,2.37
2023-05-11T11:13:23.392Z,2.60
2023-05-11T11:15:56.863Z,2.50
2023-05-11T11:18:28.216Z,2.60
2023-05-11T11:20:59.163Z,2.73
2023-05-11T11:23:45.092Z,2.40
2023-05-11T11:26:15.603Z,2.37
2023-05-11T11:28:56.956Z,2.30
2023-05-11T11:31:34.370Z,2.10
2023-05-11T11:34:20.414Z,2.37
2023-05-11T11:37:01.141Z,2.17
2023-05-11T11:39:28.968Z,2.23
2023-05-11T11:42:02.640Z,2.40
2023-05-11T11:44:29.857Z,2.30
2023-05-11T11:47:16.152Z,2.17
2023-05-11T11:49:50.684Z,2.00
2023-05-11T11:52:30.082Z,1.80
2023-05-11T11:54:59.864Z,1.50
2023-05-11T11:57:36.463Z,1.63
2023-05-11T12:00:10.498Z,1.80
2023-05-11T12:02:44.308Z,2.10
2023-05-11T12:05:18.854Z,2.40
2023-05-11T12:07:47.733Z,2.00
2023-05-11T12:10:15.433Z,2.10
2023-05-11T12:12:45.873Z,2.17
2023-05-11T12:15:25.235Z,1.97
2023-05-11T12:17:52.611Z,2.13
2023-05-11T12:20:20.797Z,2.27
2023-05-11T12:22:49.233Z,2.00
2023-05-11T12:25:18.120Z,2.20
2023-05-11T12:27:55.150Z,2.57
2023-05-11T12:30:26.918Z,1.87
2023-05-11T12:32:57.776Z,1.90
2023-05-11T12:35:29.519Z,1.90
2023-05-11T12:37:57.651Z,1.50
2023-05-11T12:40:25.069Z,1.77
2023-05-11T12:42:56.363Z,1.50
2023-05-11T12:45:24.761Z,1.83
2023-05-11T12:47:52.981Z,1.87
2023-05-11T12:50:20.560Z,2.10
2023-05-11T12:52:50.937Z,2.07
2023-05-11T12:55:30.662Z,1.90
2023-05-11T12:58:14.280Z,2.00
2023-05-11T13:00:54.526Z,2.10
2023-05-11T13:03:25.664Z,1.80
2023-05-11T13:05:54.272Z,1.60
2023-05-11T13:08:21.628Z,1.80
2023-05-11T13:10:48.787Z,2.03
2023-05-11T13:13:33.943Z,1.90
2023-05-11T13:16:01.324Z,2.27
2023-05-11T13:18:28.548Z,2.50
2023-05-11T13:21:08.715Z,2.40
2023-05-11T13:23:36.997Z,2.60
2023-05-11T13:26:04.352Z,2.23
2023-05-11T13:28:31.638Z,3.03
2023-05-11T13:31:01.242Z,2.47
2023-05-11T13:33:28.696Z,2.30
2023-05-11T13:35:56.307Z,2.60
2023-05-11T13:38:23.441Z,2.60
2023-05-11T13:40:50.631Z,2.87
2023-05-11T13:43:17.824Z,2.77
2023-05-11T13:45:44.946Z,2.77
2023-05-11T13:48:12.160Z,2.90
2023-05-11T13:50:39.825Z,2.87
2023-05-11T13:53:07.297Z,2.50
2023-05-11T13:55:38.033Z,3.00
2023-05-11T13:58:06.142Z,2.83
2023-05-11T14:00:34.932Z,3.00
2023-05-11T14:03:02.464Z,2.80
2023-05-11T14:05:29.768Z,2.90
2023-05-11T14:07:56.915Z,2.60
2023-05-11T14:10:26.933Z,2.83
2023-05-11T14:12:54.138Z,2.97
2023-05-11T14:15:21.625Z,3.00
2023-05-11T14:17:49.373Z,2.60
2023-05-11T14:20:16.560Z,3.00
2023-05-11T14:22:43.804Z,3.03
2023-05-11T14:25:11.092Z,2.83
2023-05-11T14:27:38.368Z,3.53
2023-05-11T14:30:05.987Z,3.23
2023-05-11T14:32:33.260Z,5.53
2023-05-11T14:35:00.651Z,3.20
2023-05-11T14:37:27.952Z,3.70
2023-05-11T14:39:55.139Z,3.57
2023-05-11T14:42:22.913Z,3.50
2023-05-11T14:44:50.063Z,3.80
2023-05-11T14:47:17.371Z,3.57
2023-05-11T14:49:44.580Z,3.83
2023-05-11T14:52:11.837Z,4.17
2023-05-11T14:54:39.036Z,4.47
2023-05-11T14:57:06.442Z,4.00
2023-05-11T14:59:33.732Z,4.33
2023-05-11T15:02:01.081Z,4.50
2023-05-11T15:04:28.432Z,4.30
2023-05-11T15:06:56.309Z,4.47
2023-05-11T15:09:24.106Z,4.33
2023-05-11T15:11:51.454Z,3.70
2023-05-11T15:14:18.638Z,3.90
2023-05-11T15:16:46.408Z,3.83
2023-05-11T15:19:13.848Z,3.37
2023-05-11T15:21:41.144Z,4.50
2023-05-11T15:24:10.785Z,3.97
2023-05-11T15:26:38.482Z,4.10
2023-05-11T15:29:05.749Z,4.10
2023-05-11T15:31:33.250Z,3.93
2023-05-11T15:34:01.330Z,4.20
2023-05-11T15:36:30.515Z,4.07
2023-05-11T15:38:58.076Z,4.30
2023-05-11T15:41:25.407Z,3.70
2023-05-11T15:43:53.130Z,4.40
2023-05-11T15:46:20.360Z,4.40
2023-05-11T15:48:47.554Z,4.57
2023-05-11T15:51:14.653Z,4.10
2023-05-11T15:53:41.843Z,4.93
2023-05-11T15:56:09.784Z,4.90
2023-05-11T15:58:36.939Z,5.10
2023-05-11T16:01:06.336Z,5.23
2023-05-11T16:03:33.700Z,5.10
2023-05-11T16:06:01.274Z,5.30
2023-05-11T16:08:28.508Z,5.20
2023-05-11T16:10:55.761Z,5.50
2023-05-11T16:13:22.963Z,4.73
2023-05-11T16:15:50.112Z,5.33
2023-05-11T16:18:19.646Z,5.70
2023-05-11T16:20:47.209Z,5.10
2023-05-11T16:23:14.387Z,5.47
2023-05-11T16:25:41.557Z,5.50
2023-05-11T16:28:08.821Z,5.70
2023-05-11T16:30:36.006Z,6.00
2023-05-11T16:33:03.132Z,6.30
2023-05-11T16:35:30.663Z,5.67
2023-05-11T16:37:59.812Z,5.80
2023-05-11T16:40:26.987Z,5.33
2023-05-11T16:42:54.464Z,5.03
2023-05-11T16:45:21.655Z,5.30
2023-05-11T16:47:48.842Z,6.30
2023-05-11T16:50:18.183Z,5.63
2023-05-11T16:52:45.684Z,5.50
2023-05-11T16:55:12.920Z,5.57
2023-05-11T16:57:40.153Z,6.37
2023-05-11T17:00:07.913Z,6.77
2023-05-11T17:02:35.148Z,5.63
2023-05-11T17:05:02.992Z,4.97
2023-05-11T17:07:30.133Z,5.23
2023-05-11T17:09:57.976Z,5.40
2023-05-11T17:12:25.144Z,6.10
2023-05-11T17:14:52.508Z,7.40
2023-05-11T17:17:19.678Z,6.87
2023-05-11T17:19:46.893Z,6.77
2023-05-11T17:22:14.045Z,6.73
2023-05-11T17:24:41.248Z,7.00
2023-05-11T17:27:08.400Z,7.03
2023-05-11T17:29:35.656Z,6.73
2023-05-11T17:32:03.433Z,7.43
2023-05-11T17:34:31.201Z,7.20
2023-05-11T17:36:58.550Z,6.93
2023-05-11T17:39:25.678Z,7.83
2023-05-11T17:41:53.243Z,8.20
2023-05-11T17:44:21.282Z,7.97
2023-05-11T17:46:48.438Z,7.23
2023-05-11T17:49:15.589Z,7.60
2023-05-11T17:51:42.730Z,8.00
2023-05-11T17:54:10.097Z,7.17
2023-05-11T17:56:37.293Z,8.17
2023-05-11T17:59:04.428Z,8.50
2023-05-11T18:01:31.681Z,7.63
2023-05-11T18:04:01.671Z,7.00
2023-05-11T18:06:29.363Z,7.70
2023-05-11T18:08:56.688Z,7.40
2023-05-11T18:11:24.125Z,7.53
2023-05-11T18:13:51.395Z,7.53
2023-05-11T18:16:18.585Z,7.73
2023-05-11T18:18:46.284Z,8.30
2023-05-11T18:21:13.444Z,9.13
2023-05-11T18:23:40.769Z,9.40
2023-05-11T18:26:08.230Z,9.30
2023-05-11T18:28:35.398Z,7.80
2023-05-11T18:31:02.603Z,6.70
2023-05-11T18:33:29.878Z,7.30
2023-05-11T18:35:57.046Z,5.77
2023-05-11T18:38:24.194Z,6.23
2023-05-11T18:40:52.795Z,6.13
2023-05-11T18:43:19.985Z,6.93
2023-05-11T18:45:47.446Z,7.00
2023-05-11T18:48:14.687Z,7.10
2023-05-11T18:50:41.884Z,7.63
2023-05-11T18:53:09.055Z,8.00
2023-05-11T18:55:49.114Z,8.47
2023-05-11T18:58:20.719Z,8.40
2023-05-11T19:00:51.242Z,8.53
2023-05-11T19:03:19.384Z,7.80
2023-05-11T19:05:46.826Z,7.77
2023-05-11T19:08:14.043Z,7.60
2023-05-11T19:10:45.031Z,7.80
2023-05-11T19:13:13.204Z,7.43
2023-05-11T19:15:40.448Z,6.87
2023-05-11T19:18:08.051Z,6.73
2023-05-11T19:20:35.348Z,7.07
2023-05-11T19:23:04.346Z,6.70
2023-05-11T19:25:31.516Z,7.17
2023-05-11T19:27:59.849Z,8.60
2023-05-11T19:30:27.087Z,7.10
2023-05-11T19:32:54.304Z,6.80
2023-05-11T19:35:21.581Z,6.90
2023-05-11T19:37:48.814Z,6.27
2023-05-11T19:42:46.727Z,6.53
2023-05-11T19:45:15.172Z,6.27
2023-05-11T19:47:42.397Z,6.03
2023-05-11T19:50:10.933Z,6.90
2023-05-11T19:52:38.637Z,7.10
2023-05-11T19:55:06.109Z,7.53
2023-05-11T19:57:36.955Z,7.53
2023-05-11T20:00:07.856Z,7.57
2023-05-11T20:02:35.692Z,6.87
2023-05-11T20:05:04.321Z,6.40
2023-05-11T20:07:32.016Z,5.73
2023-05-11T20:09:59.207Z,7.90
2023-05-11T20:12:26.357Z,6.17
2023-05-11T20:14:54.485Z,6.40
2023-05-11T20:17:21.782Z,7.10
2023-05-11T20:19:49.242Z,7.07
2023-05-11T20:22:16.551Z,7.43
2023-05-11T20:24:43.693Z,7.00
2023-05-11T20:27:11.093Z,7.43
2023-05-11T20:29:40.382Z,7.70
2023-05-11T20:32:07.828Z,7.70
2023-05-11T20:34:35.608Z,8.30
2023-05-11T20:37:02.963Z,7.67
2023-05-11T20:39:30.148Z,8.67
2023-05-11T20:41:58.994Z,9.20
2023-05-11T20:44:26.244Z,8.60
2023-05-11T20:46:53.470Z,9.27
2023-05-11T20:49:34.716Z,8.13
2023-05-11T20:52:06.033Z,8.30
2023-05-11T20:54:34.852Z,9.17
2023-05-11T20:57:02.624Z,9.13
2023-05-11T21:02:01.969Z,9.13
2023-05-11T21:04:31.161Z,9.03
2023-05-11T21:06:58.414Z,8.90
2023-05-11T21:09:25.798Z,9.03
2023-05-11T21:11:52.972Z,8.70
2023-05-11T21:14:20.300Z,8.70
2023-05-11T21:16:48.084Z,8.60
2023-05-11T21:19:19.669Z,7.40
2023-05-11T21:21:49.512Z,9.23
2023-05-11T21:24:17.120Z,8.93
2023-05-11T21:26:48.027Z,8.50
2023-05-11T21:29:15.409Z,6.77
2023-05-11T21:31:42.610Z,7.70
2023-05-11T21:34:09.874Z,6.93
2023-05-11T21:36:38.920Z,7.10
2023-05-11T21:39:06.150Z,7.87
2023-05-11T21:41:33.345Z,5.63
2023-05-11T21:44:00.658Z,5.90
2023-05-11T21:46:27.935Z,6.07
2023-05-11T21:48:55.156Z,6.53
2023-05-11T21:51:22.488Z,7.23
2023-05-11T21:53:49.668Z,6.00
2023-05-11T21:56:16.799Z,6.30
2023-05-11T21:58:43.978Z,4.40
2023-05-11T22:01:11.260Z,4.17
2023-05-11T22:03:38.775Z,4.50
2023-05-11T22:06:06.740Z,3.50
2023-05-11T22:08:33.983Z,3.80
2023-05-11T22:11:01.552Z,3.50
2023-05-11T22:13:28.751Z,4.07
2023-05-11T22:15:56.271Z,3.73
2023-05-11T22:18:23.524Z,4.63
2023-05-11T22:20:50.732Z,4.33
2023-05-11T22:23:18.164Z,4.67
2023-05-11T22:25:45.381Z,4.57
2023-05-11T22:28:12.667Z,5.10
2023-05-11T22:30:40.184Z,4.40
2023-05-11T22:33:07.431Z,4.93
2023-05-11T22:35:34.661Z,5.60
2023-05-11T22:38:02.071Z,5.80
2023-05-11T22:40:29.211Z,6.47
2023-05-11T22:42:56.682Z,6.60
2023-05-11T22:45:23.868Z,6.53
2023-05-11T22:47:51.117Z,6.60
2023-05-11T22:50:18.630Z,6.30
2023-05-11T22:52:47.248Z,5.80
2023-05-11T22:55:14.540Z,5.43
2023-05-11T22:57:41.687Z,5.13
2023-05-11T23:00:12.211Z,5.63
2023-05-11T23:02:39.566Z,5.20
2023-05-11T23:05:07.318Z,4.90
2023-05-11T23:07:34.485Z,5.27
2023-05-11T23:10:01.663Z,5.13
2023-05-11T23:12:28.813Z,5.20
2023-05-11T23:14:56.038Z,5.17
2023-05-11T23:17:23.294Z,5.13
2023-05-11T23:19:50.583Z,5.23
2023-05-11T23:22:17.794Z,5.40
2023-05-11T23:24:45.039Z,5.03
2023-05-11T23:27:12.213Z,5.50
2023-05-11T23:29:39.613Z,5.80
2023-05-11T23:32:06.954Z,5.13
2023-05-11T23:34:34.110Z,5.77
2023-05-11T23:37:01.294Z,5.37
2023-05-11T23:39:28.472Z,5.90
2023-05-11T23:41:55.617Z,6.47
2023-05-11T23:44:22.844Z,6.70
2023-05-11T23:46:50.047Z,7.50
2023-05-11T23:49:17.210Z,6.80
2023-05-11T23:51:44.598Z,7.83
2023-05-11T23:54:11.855Z,7.93
2023-05-11T23:56:39.057Z,7.80
2023-05-11T23:59:06.227Z,7.93
